createdAt,value
2022-08-26T00:02:04.377Z,22.25
2022-08-26T00:04:51.692Z,22.26
2022-08-26T00:07:39.045Z,22.21
2022-08-26T00:10:26.420Z,22.16
2022-08-26T00:13:14.708Z,22.24
2022-08-26T00:16:02.752Z,22.12
2022-08-26T00:18:53.254Z,22.23
2022-08-26T00:21:40.538Z,22.19
2022-08-26T00:24:28.239Z,22.09
2022-08-26T00:27:15.556Z,22.19
2022-08-26T00:30:08.583Z,22.20
2022-08-26T00:32:56.938Z,22.15
2022-08-26T00:35:45.337Z,22.16
2022-08-26T00:38:33.370Z,22.15
2022-08-26T00:41:20.702Z,22.09
2022-08-26T00:44:10.528Z,22.12
2022-08-26T00:47:02.823Z,22.14
2022-08-26T00:49:51.872Z,22.16
2022-08-26T00:52:41.338Z,22.16
2022-08-26T00:55:41.254Z,22.14
2022-08-26T00:58:32.167Z,22.14
2022-08-26T01:01:19.687Z,22.13
2022-08-26T01:04:13.739Z,22.11
2022-08-26T01:07:02.289Z,22.10
2022-08-26T01:09:49.868Z,22.04
2022-08-26T01:12:45.201Z,22.09
2022-08-26T01:15:41.891Z,22.03
2022-08-26T01:18:30.304Z,22.00
2022-08-26T01:21:40.749Z,21.99
2022-08-26T01:24:30.406Z,21.93
2022-08-26T01:27:20.833Z,21.96
2022-08-26T01:30:08.772Z,21.85
2022-08-26T01:32:59.527Z,21.80
2022-08-26T01:35:47.783Z,21.85
2022-08-26T01:38:36.087Z,21.82
2022-08-26T01:41:27.440Z,21.77
2022-08-26T01:44:21.525Z,21.72
2022-08-26T01:47:09.948Z,21.68
2022-08-26T01:50:00.080Z,21.64
2022-08-26T01:52:54.260Z,21.62
2022-08-26T01:55:45.458Z,21.65
2022-08-26T01:58:39.248Z,21.72
2022-08-26T02:01:28.956Z,21.74
2022-08-26T02:04:29.644Z,21.73
2022-08-26T02:07:19.846Z,21.74
2022-08-26T02:10:09.308Z,21.70
2022-08-26T02:12:56.689Z,21.69
2022-08-26T02:15:45.883Z,21.67
2022-08-26T02:18:37.418Z,21.65
2022-08-26T02:21:24.939Z,21.60
2022-08-26T02:24:19.941Z,21.64
2022-08-26T02:27:07.412Z,21.61
2022-08-26T02:30:04.992Z,21.61
2022-08-26T02:32:53.325Z,21.62
2022-08-26T02:35:40.840Z,21.55
2022-08-26T02:38:29.599Z,21.57
2022-08-26T02:41:17.741Z,21.51
2022-08-26T02:44:07.353Z,21.50
2022-08-26T02:46:55.030Z,21.48
2022-08-26T02:49:47.219Z,21.47
2022-08-26T02:52:35.030Z,21.41
2022-08-26T02:55:22.295Z,21.32
2022-08-26T02:58:12.058Z,21.29
2022-08-26T03:00:59.751Z,21.32
2022-08-26T03:03:49.101Z,21.26
2022-08-26T03:06:37.597Z,21.23
2022-08-26T03:09:25.410Z,21.23
2022-08-26T03:12:13.267Z,21.10
2022-08-26T03:15:01.412Z,21.09
2022-08-26T03:17:50.266Z,21.10
2022-08-26T03:20:37.788Z,21.04
2022-08-26T03:23:25.795Z,20.99
2022-08-26T03:26:15.474Z,20.96
2022-08-26T03:29:22.648Z,20.92
2022-08-26T03:32:09.945Z,20.90
2022-08-26T03:34:58.167Z,20.85
2022-08-26T03:37:45.463Z,20.85
2022-08-26T03:40:36.759Z,20.82
2022-08-26T03:43:26.927Z,20.79
2022-08-26T03:46:15.034Z,20.78
2022-08-26T03:49:05.459Z,20.72
2022-08-26T03:51:52.638Z,20.68
2022-08-26T03:54:41.189Z,20.70
2022-08-26T03:57:31.474Z,20.65
2022-08-26T04:00:19.965Z,20.61
2022-08-26T04:03:10.050Z,20.53
2022-08-26T04:05:57.698Z,20.59
2022-08-26T04:08:45.384Z,20.58
2022-08-26T04:11:35.899Z,20.58
2022-08-26T04:14:27.830Z,20.59
2022-08-26T04:17:15.894Z,20.53
2022-08-26T04:20:06.502Z,20.54
2022-08-26T04:22:54.013Z,20.55
2022-08-26T04:25:41.263Z,20.48
2022-08-26T04:28:29.875Z,20.54
2022-08-26T04:31:18.836Z,20.56
2022-08-26T04:34:07.229Z,20.57
2022-08-26T04:36:56.201Z,20.54
2022-08-26T04:39:43.439Z,20.59
2022-08-26T04:42:33.608Z,20.60
2022-08-26T04:45:22.804Z,20.55
2022-08-26T04:48:11.065Z,20.56
2022-08-26T04:51:00.167Z,20.60
2022-08-26T04:53:47.413Z,20.52
2022-08-26T04:56:37.653Z,20.62
2022-08-26T04:59:25.279Z,20.61
2022-08-26T05:02:12.508Z,20.64
2022-08-26T05:04:59.730Z,20.63
2022-08-26T05:07:47.009Z,20.68
2022-08-26T05:10:46.923Z,20.67
2022-08-26T05:13:35.223Z,20.76
2022-08-26T05:16:22.664Z,20.79
2022-08-26T05:19:10.277Z,20.83
2022-08-26T05:22:01.259Z,20.80
2022-08-26T05:24:48.918Z,20.90
2022-08-26T05:27:36.422Z,20.93
2022-08-26T05:30:24.548Z,20.93
2022-08-26T05:33:12.379Z,20.99
2022-08-26T05:36:07.784Z,21.05
2022-08-26T05:38:57.917Z,21.13
2022-08-26T05:41:45.340Z,21.15
2022-08-26T05:44:55.591Z,21.21
2022-08-26T05:47:43.392Z,21.29
2022-08-26T05:50:30.595Z,21.32
2022-08-26T05:53:21.481Z,21.41
2022-08-26T05:56:10.817Z,21.41
2022-08-26T05:58:59.634Z,21.45
2022-08-26T06:01:47.089Z,21.57
2022-08-26T06:04:35.515Z,21.51
2022-08-26T06:07:43.578Z,21.65
2022-08-26T06:10:33.112Z,21.68
2022-08-26T06:13:24.308Z,21.80
2022-08-26T06:16:15.403Z,21.84
2022-08-26T06:19:11.178Z,21.89
2022-08-26T06:22:23.307Z,21.91
2022-08-26T06:25:29.649Z,21.97
2022-08-26T06:28:17.530Z,22.07
2022-08-26T06:31:06.394Z,22.03
2022-08-26T06:33:54.283Z,22.14
2022-08-26T06:36:44.017Z,22.23
2022-08-26T06:39:32.047Z,22.23
2022-08-26T06:42:19.496Z,22.22
2022-08-26T06:45:07.319Z,22.40
2022-08-26T06:47:54.792Z,22.48
2022-08-26T06:50:42.899Z,22.59
2022-08-26T06:53:30.137Z,22.64
2022-08-26T06:56:21.060Z,22.73
2022-08-26T06:59:12.613Z,22.77
2022-08-26T07:01:59.911Z,22.81
2022-08-26T07:04:51.104Z,22.83
2022-08-26T07:07:40.973Z,22.97
2022-08-26T07:10:33.047Z,22.99
2022-08-26T07:13:30.871Z,23.08
2022-08-26T07:16:18.613Z,23.13
2022-08-26T07:19:11.206Z,23.20
2022-08-26T07:22:04.346Z,23.28
2022-08-26T07:24:54.093Z,23.31
2022-08-26T07:27:44.026Z,23.38
2022-08-26T07:30:31.585Z,23.43
2022-08-26T07:33:22.286Z,23.47
2022-08-26T07:36:11.717Z,23.52
2022-08-26T07:38:59.321Z,23.57
2022-08-26T07:41:48.569Z,23.53
2022-08-26T07:44:38.266Z,23.70
2022-08-26T07:47:28.609Z,23.69
2022-08-26T07:50:18.605Z,23.73
2022-08-26T07:53:15.655Z,23.78
2022-08-26T07:56:05.566Z,23.85
2022-08-26T07:58:53.484Z,23.90
2022-08-26T08:01:44.749Z,23.93
2022-08-26T08:04:35.703Z,24.01
2022-08-26T08:07:38.647Z,24.06
2022-08-26T08:10:31.957Z,24.16
2022-08-26T08:13:23.071Z,24.22
2022-08-26T08:16:12.770Z,24.30
2022-08-26T08:19:00.368Z,24.35
2022-08-26T08:21:47.651Z,24.43
2022-08-26T08:24:35.309Z,24.38
2022-08-26T08:27:24.134Z,24.61
2022-08-26T08:30:13.643Z,24.70
2022-08-26T08:33:01.978Z,24.84
2022-08-26T08:35:49.833Z,24.92
2022-08-26T08:38:37.414Z,24.98
2022-08-26T08:41:43.707Z,25.13
2022-08-26T08:44:33.769Z,25.18
2022-08-26T08:47:36.175Z,25.26
2022-08-26T08:50:51.240Z,25.50
2022-08-26T08:53:42.123Z,25.55
2022-08-26T08:56:57.658Z,25.81
2022-08-26T09:00:02.666Z,25.85
2022-08-26T09:02:58.578Z,26.01
2022-08-26T09:05:51.603Z,26.04
2022-08-26T09:08:41.846Z,26.20
2022-08-26T09:11:29.470Z,26.25
2022-08-26T09:14:18.069Z,26.34
2022-08-26T09:17:16.127Z,26.47
2022-08-26T09:20:27.659Z,26.47
2022-08-26T09:23:19.425Z,26.61
2022-08-26T09:26:26.010Z,26.76
2022-08-26T09:29:22.424Z,26.86
2022-08-26T09:32:21.343Z,26.95
2022-08-26T09:35:35.838Z,27.05
2022-08-26T09:38:33.258Z,27.06
2022-08-26T09:41:32.947Z,27.18
2022-08-26T09:44:21.754Z,27.22
2022-08-26T09:47:09.942Z,27.30
2022-08-26T09:49:59.452Z,27.32
2022-08-26T09:52:46.736Z,27.36
2022-08-26T09:55:35.951Z,27.47
2022-08-26T09:58:37.818Z,27.54
2022-08-26T10:01:30.918Z,27.60
2022-08-26T10:04:24.917Z,27.67
2022-08-26T10:07:14.161Z,27.67
2022-08-26T10:10:09.423Z,27.76
2022-08-26T10:13:12.675Z,27.76
2022-08-26T10:16:00.234Z,27.78
2022-08-26T10:19:07.980Z,27.80
2022-08-26T10:22:07.924Z,27.78
2022-08-26T10:25:03.836Z,27.78
2022-08-26T10:28:03.694Z,27.83
2022-08-26T10:30:57.255Z,27.79
2022-08-26T10:33:44.626Z,27.77
2022-08-26T10:37:13.773Z,27.81
2022-08-26T10:40:07.643Z,27.84
2022-08-26T10:43:10.985Z,27.88
2022-08-26T10:46:08.972Z,27.88
2022-08-26T10:49:03.198Z,27.88
2022-08-26T10:52:03.961Z,28.03
2022-08-26T10:55:20.461Z,28.06
2022-08-26T10:58:30.692Z,28.09
2022-08-26T11:01:44.284Z,28.12
2022-08-26T11:04:37.822Z,28.16
2022-08-26T11:07:31.888Z,28.23
2022-08-26T11:10:19.145Z,28.27
2022-08-26T11:13:08.324Z,28.31
2022-08-26T11:16:01.323Z,28.42
2022-08-26T11:19:00.137Z,28.57
2022-08-26T11:22:05.646Z,28.76
2022-08-26T11:24:52.911Z,28.85
2022-08-26T11:27:40.332Z,28.91
2022-08-26T11:30:46.131Z,28.97
2022-08-26T11:33:54.128Z,29.05
2022-08-26T11:36:56.211Z,29.09
2022-08-26T11:39:55.194Z,29.08
2022-08-26T11:42:49.401Z,29.08
2022-08-26T11:46:00.514Z,29.12
2022-08-26T11:48:48.637Z,29.07
2022-08-26T11:51:40.405Z,29.09
2022-08-26T11:54:35.693Z,29.08
2022-08-26T11:57:23.493Z,29.05
2022-08-26T12:00:21.096Z,29.07
2022-08-26T12:03:17.904Z,29.09
2022-08-26T12:06:17.694Z,29.11
2022-08-26T12:09:12.993Z,29.12
2022-08-26T12:12:10.667Z,29.13
2022-08-26T12:15:05.639Z,29.13
2022-08-26T12:17:54.453Z,29.05
2022-08-26T12:20:48.642Z,29.12
2022-08-26T12:23:36.495Z,29.09
2022-08-26T12:26:34.890Z,29.08
2022-08-26T12:29:28.375Z,29.02
2022-08-26T12:32:18.484Z,28.97
2022-08-26T12:35:10.150Z,28.97
2022-08-26T12:37:58.926Z,28.99
2022-08-26T12:40:48.155Z,29.00
2022-08-26T12:43:44.395Z,28.96
2022-08-26T12:46:32.012Z,28.94
2022-08-26T12:49:19.345Z,28.96
2022-08-26T12:52:09.860Z,28.99
2022-08-26T12:55:18.583Z,29.07
2022-08-26T12:58:31.882Z,29.09
2022-08-26T13:01:25.294Z,29.05
2022-08-26T13:04:40.591Z,29.25
2022-08-26T13:07:27.899Z,29.39
2022-08-26T13:10:38.218Z,29.64
2022-08-26T13:13:25.489Z,29.75
2022-08-26T13:16:16.255Z,29.75
2022-08-26T13:19:13.428Z,29.90
2022-08-26T13:22:01.139Z,30.01
2022-08-26T13:24:48.520Z,30.16
2022-08-26T13:27:35.956Z,30.31
2022-08-26T13:30:24.649Z,30.50
2022-08-26T13:33:14.635Z,30.64
2022-08-26T13:36:02.073Z,30.82
2022-08-26T13:38:52.065Z,30.94
2022-08-26T13:41:40.717Z,31.01
2022-08-26T13:44:28.406Z,31.09
2022-08-26T13:47:16.975Z,31.20
2022-08-26T13:50:05.833Z,31.27
2022-08-26T13:52:53.857Z,31.36
2022-08-26T13:55:43.445Z,31.51
2022-08-26T13:58:31.127Z,31.54
2022-08-26T14:01:18.628Z,31.66
2022-08-26T14:04:06.652Z,31.81
2022-08-26T14:06:54.079Z,31.92
2022-08-26T14:09:41.678Z,31.99
2022-08-26T14:12:29.819Z,32.01
2022-08-26T14:15:18.883Z,32.14
2022-08-26T14:18:09.197Z,32.22
2022-08-26T14:20:57.650Z,32.29
2022-08-26T14:23:45.032Z,32.38
2022-08-26T14:26:32.931Z,32.48
2022-08-26T14:29:20.216Z,32.56
2022-08-26T14:32:13.710Z,32.64
2022-08-26T14:35:01.945Z,32.70
2022-08-26T14:37:49.565Z,32.81
2022-08-26T14:40:38.406Z,32.87
2022-08-26T14:43:26.417Z,32.93
2022-08-26T14:46:15.682Z,32.98
2022-08-26T14:49:06.198Z,33.04
2022-08-26T14:51:56.675Z,33.08
2022-08-26T14:54:44.668Z,33.11
2022-08-26T14:57:32.069Z,33.08
2022-08-26T15:00:19.570Z,33.06
2022-08-26T15:03:07.048Z,33.07
2022-08-26T15:05:55.014Z,33.05
2022-08-26T15:08:42.546Z,33.08
2022-08-26T15:11:30.002Z,33.00
2022-08-26T15:14:19.327Z,32.94
2022-08-26T15:17:07.636Z,32.95
2022-08-26T15:19:54.963Z,32.92
2022-08-26T15:22:43.400Z,32.91
2022-08-26T15:25:31.369Z,32.95
2022-08-26T15:28:18.764Z,32.92
2022-08-26T15:31:07.296Z,32.92
2022-08-26T15:33:56.674Z,32.90
2022-08-26T15:36:46.183Z,32.88
2022-08-26T15:39:34.327Z,32.87
2022-08-26T15:42:21.672Z,32.88
2022-08-26T15:45:09.279Z,32.85
2022-08-26T15:48:01.396Z,32.86
2022-08-26T15:50:51.752Z,32.88
2022-08-26T15:53:39.102Z,32.88
2022-08-26T15:56:28.046Z,32.86
2022-08-26T15:59:15.977Z,32.87
2022-08-26T16:02:03.374Z,32.83
2022-08-26T16:04:50.673Z,32.75
2022-08-26T16:07:38.244Z,32.70
2022-08-26T16:10:25.637Z,32.71
2022-08-26T16:13:14.813Z,32.67
2022-08-26T16:16:03.347Z,32.66
2022-08-26T16:18:51.877Z,32.66
2022-08-26T16:21:40.668Z,32.70
2022-08-26T16:24:30.494Z,32.76
2022-08-26T16:27:18.092Z,33.00
2022-08-26T16:30:06.929Z,33.18
2022-08-26T16:32:55.769Z,33.31
2022-08-26T16:35:44.788Z,33.41
2022-08-26T16:38:32.248Z,33.45
2022-08-26T16:41:19.808Z,33.47
2022-08-26T16:44:07.994Z,33.44
2022-08-26T16:46:58.462Z,33.33
2022-08-26T16:49:47.029Z,33.20
2022-08-26T16:52:34.435Z,33.02
2022-08-26T16:55:23.431Z,32.94
2022-08-26T16:58:10.953Z,32.81
2022-08-26T17:00:59.265Z,32.66
2022-08-26T17:03:46.672Z,32.48
2022-08-26T17:06:34.358Z,32.26
2022-08-26T17:09:22.029Z,32.01
2022-08-26T17:12:11.302Z,31.65
2022-08-26T17:14:58.604Z,31.32
2022-08-26T17:17:46.017Z,31.00
2022-08-26T17:20:33.842Z,30.71
2022-08-26T17:23:22.451Z,30.37
2022-08-26T17:26:12.314Z,30.10
2022-08-26T17:29:00.192Z,29.82
2022-08-26T17:31:47.638Z,29.54
2022-08-26T17:34:34.867Z,29.29
2022-08-26T17:37:22.193Z,29.06
2022-08-26T17:40:13.823Z,28.79
2022-08-26T17:43:01.171Z,28.58
2022-08-26T17:45:48.531Z,28.39
2022-08-26T17:48:37.844Z,28.11
2022-08-26T17:51:25.293Z,27.97
2022-08-26T17:54:13.045Z,27.80
2022-08-26T17:57:00.639Z,27.63
2022-08-26T17:59:48.245Z,27.44
2022-08-26T18:02:39.703Z,27.31
2022-08-26T18:05:29.132Z,27.15
2022-08-26T18:08:16.585Z,26.98
2022-08-26T18:11:08.149Z,26.85
2022-08-26T18:13:59.067Z,26.68
2022-08-26T18:16:50.468Z,26.51
2022-08-26T18:19:38.878Z,26.39
2022-08-26T18:22:27.447Z,26.27
2022-08-26T18:25:18.987Z,26.19
2022-08-26T18:28:06.389Z,26.09
2022-08-26T18:30:54.001Z,25.91
2022-08-26T18:33:45.189Z,25.89
2022-08-26T18:36:37.478Z,25.78
2022-08-26T18:39:24.715Z,25.68
2022-08-26T18:42:11.971Z,25.57
2022-08-26T18:44:59.226Z,25.44
2022-08-26T18:47:46.419Z,25.41
2022-08-26T18:50:33.804Z,25.33
2022-08-26T18:53:21.394Z,25.24
2022-08-26T18:56:08.647Z,25.18
2022-08-26T18:58:55.918Z,25.11
2022-08-26T19:01:43.373Z,25.08
2022-08-26T19:04:30.663Z,24.99
2022-08-26T19:07:19.436Z,24.90
2022-08-26T19:10:07.211Z,24.85
2022-08-26T19:13:00.078Z,24.79
2022-08-26T19:15:48.012Z,24.73
2022-08-26T19:18:35.292Z,24.64
2022-08-26T19:21:24.064Z,24.61
2022-08-26T19:24:17.554Z,24.58
2022-08-26T19:27:05.568Z,24.51
2022-08-26T19:29:52.793Z,24.42
2022-08-26T19:32:40.103Z,24.41
2022-08-26T19:35:27.392Z,24.31
2022-08-26T19:38:15.573Z,24.29
2022-08-26T19:41:02.768Z,24.18
2022-08-26T19:43:50.060Z,24.16
2022-08-26T19:49:31.879Z,24.11
2022-08-26T19:52:19.227Z,24.08
2022-08-26T19:55:07.692Z,24.05
2022-08-26T19:57:55.003Z,23.99
2022-08-26T20:00:43.058Z,24.05
2022-08-26T20:03:30.838Z,24.02
2022-08-26T20:06:18.392Z,24.01
2022-08-26T20:09:05.619Z,24.00
2022-08-26T20:11:54.109Z,24.01
2022-08-26T20:14:44.542Z,23.96
2022-08-26T20:17:33.228Z,23.95
2022-08-26T20:20:39.362Z,23.88
2022-08-26T20:23:27.050Z,23.91
2022-08-26T20:26:14.594Z,23.85
2022-08-26T20:29:02.792Z,23.87
2022-08-26T20:31:51.248Z,23.85
2022-08-26T20:34:40.419Z,23.81
2022-08-26T20:37:29.662Z,23.83
2022-08-26T20:40:17.792Z,23.79
2022-08-26T20:43:06.822Z,23.76
2022-08-26T20:45:54.705Z,23.76
2022-08-26T20:48:42.794Z,23.66
2022-08-26T20:51:30.934Z,23.70
2022-08-26T20:54:26.200Z,23.70
2022-08-26T20:57:15.754Z,23.67
2022-08-26T21:00:05.872Z,23.66
2022-08-26T21:02:53.840Z,23.62
2022-08-26T21:05:42.448Z,23.60
2022-08-26T21:08:33.153Z,23.57
2022-08-26T21:11:21.659Z,23.57
2022-08-26T21:14:16.091Z,23.50
2022-08-26T21:17:05.076Z,23.40
2022-08-26T21:19:53.002Z,23.47
2022-08-26T21:22:40.496Z,23.42
2022-08-26T21:25:27.937Z,23.40
2022-08-26T21:28:19.451Z,23.39
2022-08-26T21:31:08.767Z,23.36
2022-08-26T21:33:56.441Z,23.33
2022-08-26T21:36:44.324Z,23.33
2022-08-26T21:39:31.607Z,23.29
2022-08-26T21:42:18.927Z,23.21
2022-08-26T21:45:07.283Z,23.24
2022-08-26T21:47:54.781Z,23.20
2022-08-26T21:50:43.194Z,23.16
2022-08-26T21:53:30.522Z,23.14
2022-08-26T21:56:19.419Z,23.12
2022-08-26T21:59:07.594Z,23.11
2022-08-26T22:01:55.000Z,23.06
2022-08-26T22:04:46.840Z,22.97
2022-08-26T22:07:36.269Z,22.96
2022-08-26T22:10:23.670Z,23.00
2022-08-26T22:13:11.440Z,22.96
2022-08-26T22:16:03.001Z,22.88
2022-08-26T22:18:50.597Z,22.86
2022-08-26T22:21:38.405Z,22.83
2022-08-26T22:24:27.376Z,22.83
2022-08-26T22:27:15.040Z,22.81
2022-08-26T22:30:02.360Z,22.73
2022-08-26T22:32:49.700Z,22.73
2022-08-26T22:35:42.225Z,22.71
2022-08-26T22:38:29.758Z,22.69
2022-08-26T22:41:18.502Z,22.56
2022-08-26T22:44:05.959Z,22.57
2022-08-26T22:46:57.150Z,22.58
2022-08-26T22:49:47.000Z,22.53
2022-08-26T22:52:34.252Z,22.54
2022-08-26T22:55:21.568Z,22.53
2022-08-26T22:58:09.562Z,22.52
2022-08-26T23:00:57.923Z,22.48
2022-08-26T23:03:46.758Z,22.39
2022-08-26T23:06:39.584Z,22.46
2022-08-26T23:09:26.874Z,22.42
2022-08-26T23:12:14.406Z,22.40
2022-08-26T23:15:01.714Z,22.40
2022-08-26T23:17:53.588Z,22.40
2022-08-26T23:20:47.154Z,22.36
2022-08-26T23:23:35.772Z,22.39
2022-08-26T23:26:23.106Z,22.35
2022-08-26T23:29:12.719Z,22.36
2022-08-26T23:32:00.520Z,22.34
2022-08-26T23:34:57.019Z,22.35
2022-08-26T23:37:46.156Z,22.35
2022-08-26T23:40:37.937Z,22.32
2022-08-26T23:43:25.263Z,22.29
2022-08-26T23:46:15.001Z,22.27
2022-08-26T23:49:02.544Z,22.20
2022-08-26T23:52:08.447Z,22.21
2022-08-26T23:54:56.011Z,22.16
2022-08-26T23:57:43.389Z,22.17
